Nearby METAR Reports

 

KBJC - Broomfield/Jeffc, Colorado, USA
Distance from station: SSW 3mi, 5km
Updated: Sun, 18-Nov-2018 2:29am MST
Overcast
Overcast
 Wind from calm
Wind: Calm
Temperature: 23°F , -5°C
Dew Point: 21°F , -6°C
Humidity: 93%
Barometer: 30.21 inHg , 1023 hPa
Clouds: Overcast
Visibility: 10 miles , 16 km
Cloud details: Overcast 1000 ft
2018/11/18 09:29 KBJC 180929Z AUTO 00000KT 10SM OVC010 M05/M06 A3021 RMK AO2
KEIK - Erie Muni, Colorado, USA
Distance from station: N 5mi, 9km
Updated: Sun, 18-Nov-2018 2:30am MST
Overcast
Overcast
 Wind from calm
Wind: Calm
Temperature: 23°F , -5°C
Dew Point: 19°F , -7°C
Humidity: 86%
Barometer: 30.29 inHg , 1025.7 hPa
Clouds: Overcast
Visibility: 10 miles , 16 km
Cloud details: Overcast 1500 ft
2018/11/18 09:30 KEIK 180930Z AUTO 00000KT 10SM OVC015 M05/M07 A3029 RMK AO2 T10461066
 
KBDU - Boulder Muni, Colorado, USA
Distance from station: NW 11mi, 17km
Updated: Sun, 18-Nov-2018 2:30am MST
Overcast
Overcast
 Wind from calm
Wind: Calm
Temperature: 23°F , -5°C
Dew Point: 19°F , -7°C
Humidity: 86%
Barometer: 30.22 inHg , 1023.4 hPa
Clouds: Overcast
Visibility: 10 miles , 16 km
Cloud details: Overcast 1300 ft
2018/11/18 09:30 KBDU 180930Z AUTO 00000KT 10SM OVC013 M05/M07 A3022 RMK AO2
KLMO - Longmont/Vbrand, Colorado, USA
Distance from station: NNW 16mi, 27km
Updated: Sun, 18-Nov-2018 2:35am MST
Overcast
Overcast
 Wind from S
Wind: S 5 mph , 7 km/h
Temperature: 25°F , -4°C
Wind Chill: 19°F , -7°C
Dew Point: 19°F , -7°C
Humidity: 80%
Barometer: 30.25 inHg , 1024.4 hPa
Clouds: Overcast
Visibility: 10 miles , 16 km
Cloud details: Overcast 1200 ft
2018/11/18 09:35 KLMO 180935Z AUTO 17004KT 10SM OVC012 M04/M07 A3025 RMK AO2 T10421066
 
KBKF - Buckley Angb/Den, Colorado, USA
Distance from station: SE 23mi, 37km
Updated: Sun, 18-Nov-2018 1:58am MST
Overcast
Overcast
 Wind from calm
Wind: Calm
Temperature: 21°F , -6°C
Dew Point: 19°F , -7°C
Humidity: 93%
Barometer: 30.22 inHg , 1023.4 hPa
Clouds: Overcast
Visibility: 10 miles , 16 km
Cloud details: Few Clouds 500 ft
Overcast 1000 ft
2018/11/18 08:58 KBKF 180858Z 00000KT 10SM FEW005 OVC010 M06/M07 A3022 RMK AO2A SLP277 60000 T10631066 57009
KDEN - Denver (dia), Colorado, USA
Distance from station: ESE 23mi, 37km
Updated: Sun, 18-Nov-2018 1:53am MST
Overcast
Overcast
 Wind from calm
Wind: Calm
Temperature: 21°F , -6°C
Dew Point: 19°F , -7°C
Humidity: 93%
Barometer: 30.23 inHg , 1023.7 hPa
Clouds: Overcast
Visibility: 10 miles , 16 km
Cloud details: Overcast 1100 ft
2018/11/18 08:53 KDEN 180853Z 00000KT 10SM OVC011 M06/M07 A3023 RMK AO2 SLP276 60000 T10611072 58011 $
 
KAPA - Denver/Arapahoe, Colorado, USA
Distance from station: SSE 28mi, 46km
Updated: Sun, 18-Nov-2018 1:53am MST
Overcast
Overcast
 Wind from calm
Wind: Calm
Temperature: 21°F , -6°C
Dew Point: 19°F , -7°C
Humidity: 93%
Barometer: 30.21 inHg , 1023 hPa
Clouds: Overcast
Visibility: 10 miles , 16 km
Cloud details: Mostly cloudy 1200 ft
Overcast 2000 ft
2018/11/18 08:53 KAPA 180853Z 00000KT 10SM BKN012 OVC020 M06/M07 A3021 RMK AO2 SLP287 T10611067 56009
KFTG - Denver F. Range, Colorado, USA
Distance from station: ESE 30mi, 48km
Updated: Sun, 18-Nov-2018 2:36am MST
Overcast
Overcast
 Wind from calm
Wind: Calm
Temperature: 23°F , -5°C
Dew Point: 21°F , -6°C
Humidity: 93%
Barometer: 30.22 inHg , 1023.4 hPa
Clouds: Overcast
Visibility: 10 miles , 16 km
Cloud details: Overcast 1000 ft
2018/11/18 09:36 KFTG 180936Z AUTO 00000KT 10SM OVC010 M05/M06 A3022 RMK AO2 T10491059
 
KFNL - Ft Collins/Lovel, Colorado, USA
Distance from station: N 35mi, 57km
Updated: Sun, 18-Nov-2018 2:16am MST
Partly cloudy
Partly cloudy
 Wind from SW
Wind: SW 5 mph , 7 km/h
Temperature: 18°F , -8°C
Wind Chill: 11°F , -12°C
Dew Point: 16°F , -9°C
Humidity: 93%
Barometer: 30.25 inHg , 1024.4 hPa
Clouds: Partly cloudy
Visibility: 10 miles , 16 km
Cloud details: Partly cloudy 700 ft
2018/11/18 09:16 KFNL 180916Z AUTO 22004KT 10SM SCT007 M08/M09 A3025 RMK AO2 FZRANO PNO $
K0CO - Berthoud Pass, Colorado, USA
Distance from station: WSW 38mi, 61km
Updated: Sun, 18-Nov-2018 2:42am MST
Overcast
Overcast
 Wind from NW
Wind: NW 32 mph , 52 km/h
Temperature: 9°F , -13°C
Wind Chill: -14°F , -26°C
Dew Point: -6°F , -21°C
Humidity: 51%
Barometer: 30.06 inHg , 1017.9 hPa
Clouds: Overcast
Cloud details: Partly cloudy 100 ft
Mostly cloudy 1900 ft
Overcast 2600 ft
2018/11/18 09:42 K0CO 180942Z AUTO 31028KT SCT001 BKN019 OVC026 M13/M21 A3006 RMK AO2 PWINO
 
KGXY - Greeley/Weld, Colorado, USA
Distance from station: NE 41mi, 66km
Updated: Sun, 18-Nov-2018 2:42am MST
Mostly cloudy
Mostly cloudy
 Wind from NNE
Wind: NNE 3 mph , 6 km/h
Temperature: 12°F , -11°C
Dew Point: 12°F , -11°C
Humidity: 100%
Barometer: 30.26 inHg , 1024.7 hPa
Clouds: Mostly cloudy
Visibility: 10 miles , 16 km
Cloud details: Mostly cloudy 800 ft
2018/11/18 09:42 KGXY 180942Z AUTO 03003KT 10SM BKN008 M11/M11 A3026 RMK AO2 FZRANO